CES85L EDDF-ZSPD
Flight info
| Callsign | CES85L |
|---|---|
| Flight time | N/A |
| Altitude | 31000 |
| Route | CINDY8S/18 CINDY Z74 HAREM DCT ASLEP DCT TAKUT DCT DINKU L603 BESNI/N0494F330 L605 MIQ/N0491F350 DCT ALUTU DCT BIBAG Q104 AKIMA DCT ARSIN DCT TEGRI DCT DINRO N743 UDROS UM859 KARDE UL851 TBN UM11 REBLO M11 MATAL T916 BALUN/K0907F370 T916 KUNAS T733 EGZIG N147 ELAHA Z621 ARBOL M610 RULAD/K0911S1130 A343 POSOT B215 FKG W188 BATUS/K0915S1190 W188 LIKMI W270 DKO W69 HUR B339 SOTMU/K0896S1220 W98 ELKUR W40 DOXAB/K0898S1190 W40 YQG/K0900S1220 W142 DALIM/K0902S1190 A593 DPX A470 DALNU W166 ZJ W167 SASAN SAS81A |
| Aircraft | B789/H-SDE1E2E3FGHIJ2J3J4J5M1RWXY/LB1D1 |
Departure
| Time | 2026-05-01 12:25 |
|---|---|
| Airport | Frankfurt Main Airport (EDDF) |
Arrival
| Time | N/A |
|---|---|
| Airport | Shanghai Pudong International Airport (ZSPD) |
| Time | Latitude | Longitude | Altitude | Speed | Heading |
|---|---|---|---|---|---|
| 2026-05-01 11:51 | 50.03064 | 8.57333 | 368 ft | 0 kts | 25° |
| 2026-05-01 12:07 | 50.03055 | 8.57327 | 367 ft | 4 kts | 25° |
| 2026-05-01 12:08 | 50.03030 | 8.57309 | 366 ft | 4 kts | 25° |
| 2026-05-01 12:08 | 50.03006 | 8.57292 | 367 ft | 4 kts | 25° |
| 2026-05-01 12:08 | 50.02985 | 8.57278 | 362 ft | 4 kts | 1° |
| 2026-05-01 12:08 | 50.02967 | 8.57291 | 365 ft | 4 kts | 293° |
| 2026-05-01 12:09 | 50.02960 | 8.57319 | 364 ft | 0 kts | 295° |
| 2026-05-01 12:12 | 50.02963 | 8.57309 | 363 ft | 3 kts | 295° |
| 2026-05-01 12:13 | 50.02978 | 8.57256 | 363 ft | 8 kts | 295° |
| 2026-05-01 12:13 | 50.03011 | 8.57145 | 365 ft | 14 kts | 295° |
| 2026-05-01 12:13 | 50.03062 | 8.56979 | 364 ft | 19 kts | 301° |
| 2026-05-01 12:13 | 50.03163 | 8.56895 | 364 ft | 16 kts | 341° |
| 2026-05-01 12:14 | 50.03259 | 8.56818 | 363 ft | 15 kts | 305° |
| 2026-05-01 12:14 | 50.03246 | 8.56664 | 361 ft | 15 kts | 251° |
| 2026-05-01 12:14 | 50.03210 | 8.56507 | 360 ft | 16 kts | 249° |
| 2026-05-01 12:14 | 50.03167 | 8.56327 | 356 ft | 19 kts | 250° |
| 2026-05-01 12:15 | 50.03117 | 8.56120 | 360 ft | 22 kts | 249° |
| 2026-05-01 12:15 | 50.03060 | 8.55880 | 354 ft | 24 kts | 249° |
| 2026-05-01 12:15 | 50.03002 | 8.55642 | 358 ft | 23 kts | 249° |
| 2026-05-01 12:15 | 50.02947 | 8.55409 | 354 ft | 23 kts | 249° |
| 2026-05-01 12:16 | 50.02893 | 8.55184 | 357 ft | 22 kts | 249° |
| 2026-05-01 12:16 | 50.02840 | 8.54966 | 352 ft | 22 kts | 249° |
| 2026-05-01 12:16 | 50.02786 | 8.54744 | 356 ft | 22 kts | 249° |
| 2026-05-01 12:16 | 50.02733 | 8.54527 | 351 ft | 21 kts | 249° |
| 2026-05-01 12:17 | 50.02685 | 8.54312 | 354 ft | 21 kts | 256° |
| 2026-05-01 12:17 | 50.02642 | 8.54092 | 350 ft | 22 kts | 249° |
| 2026-05-01 12:17 | 50.02589 | 8.53869 | 339 ft | 22 kts | 249° |
| 2026-05-01 12:17 | 50.02537 | 8.53653 | 336 ft | 21 kts | 249° |
| 2026-05-01 12:18 | 50.02488 | 8.53450 | 344 ft | 20 kts | 250° |
| 2026-05-01 12:18 | 50.02441 | 8.53253 | 348 ft | 19 kts | 250° |
| 2026-05-01 12:18 | 50.02403 | 8.53052 | 340 ft | 19 kts | 272° |
| 2026-05-01 12:18 | 50.02430 | 8.52951 | 335 ft | 0 kts | 310° |
| 2026-05-01 12:19 | 50.02431 | 8.52949 | 335 ft | 1 kts | 310° |
| 2026-05-01 12:19 | 50.02443 | 8.52926 | 336 ft | 4 kts | 310° |
| 2026-05-01 12:19 | 50.02468 | 8.52882 | 336 ft | 7 kts | 310° |
| 2026-05-01 12:19 | 50.02521 | 8.52835 | 338 ft | 11 kts | 345° |
| 2026-05-01 12:20 | 50.02619 | 8.52826 | 339 ft | 17 kts | 359° |
| 2026-05-01 12:20 | 50.02758 | 8.52825 | 339 ft | 22 kts | 0° |
| 2026-05-01 12:20 | 50.02907 | 8.52824 | 337 ft | 21 kts | 360° |
| 2026-05-01 12:20 | 50.03049 | 8.52823 | 336 ft | 20 kts | 359° |
| 2026-05-01 12:21 | 50.03185 | 8.52820 | 338 ft | 19 kts | 360° |
| 2026-05-01 12:21 | 50.03279 | 8.52800 | 335 ft | 7 kts | 312° |
| 2026-05-01 12:21 | 50.03281 | 8.52770 | 335 ft | 4 kts | 264° |
| 2026-05-01 12:21 | 50.03272 | 8.52703 | 337 ft | 9 kts | 260° |
| 2026-05-01 12:22 | 50.03251 | 8.52611 | 335 ft | 9 kts | 215° |
| 2026-05-01 12:22 | 50.03217 | 8.52595 | 338 ft | 0 kts | 180° |
| 2026-05-01 12:24 | 50.03186 | 8.52595 | 340 ft | 15 kts | 180° |
| 2026-05-01 12:24 | 50.02917 | 8.52599 | 336 ft | 65 kts | 179° |
| 2026-05-01 12:25 | 50.02291 | 8.52602 | 336 ft | 114 kts | 180° |
| 2026-05-01 12:25 | 50.00132 | 8.52647 | 337 ft | 192 kts | 175° |
| 2026-05-01 12:25 | 49.98823 | 8.52672 | 975 ft | 179 kts | 175° |
| 2026-05-01 12:26 | 49.97612 | 8.52685 | 1587 ft | 170 kts | 172° |
| 2026-05-01 12:26 | 49.95857 | 8.54736 | 2066 ft | 172 kts | 119° |
| 2026-05-01 12:26 | 49.95298 | 8.56430 | 2345 ft | 180 kts | 114° |
| 2026-05-01 12:27 | 49.94744 | 8.58234 | 2607 ft | 190 kts | 116° |
| 2026-05-01 12:27 | 49.94097 | 8.62321 | 3326 ft | 206 kts | 94° |
| 2026-05-01 12:28 | 49.93812 | 8.66949 | 4197 ft | 224 kts | 96° |
| 2026-05-01 12:28 | 49.93414 | 8.69309 | 4521 ft | 232 kts | 120° |
| 2026-05-01 12:28 | 49.91005 | 8.72592 | 5522 ft | 232 kts | 145° |
| 2026-05-01 12:29 | 49.89656 | 8.74056 | 5846 ft | 243 kts | 145° |
| 2026-05-01 12:29 | 49.88358 | 8.75824 | 6062 ft | 256 kts | 127° |
| 2026-05-01 12:29 | 49.86569 | 8.80645 | 7068 ft | 260 kts | 120° |
| 2026-05-01 12:30 | 49.84792 | 8.85588 | 7986 ft | 266 kts | 121° |
| 2026-05-01 12:30 | 49.83881 | 8.88089 | 8440 ft | 268 kts | 121° |
| 2026-05-01 12:30 | 49.82963 | 8.90620 | 8866 ft | 271 kts | 120° |
| 2026-05-01 12:31 | 49.82039 | 8.93167 | 9327 ft | 272 kts | 120° |
| 2026-05-01 12:31 | 49.81108 | 8.95728 | 9775 ft | 274 kts | 121° |
| 2026-05-01 12:31 | 49.80170 | 8.98302 | 10186 ft | 277 kts | 120° |
| 2026-05-01 12:31 | 49.79190 | 9.00989 | 10326 ft | 296 kts | 120° |
| 2026-05-01 12:32 | 49.78147 | 9.03847 | 10480 ft | 314 kts | 120° |
| 2026-05-01 12:32 | 49.76038 | 9.10071 | 10796 ft | 346 kts | 108° |
| 2026-05-01 12:32 | 49.75492 | 9.13732 | 11236 ft | 351 kts | 104° |
| 2026-05-01 12:33 | 49.74904 | 9.17271 | 11690 ft | 354 kts | 108° |
| 2026-05-01 12:33 | 49.73680 | 9.20625 | 12093 ft | 360 kts | 129° |
| 2026-05-01 12:33 | 49.72001 | 9.23556 | 12764 ft | 359 kts | 131° |
| 2026-05-01 12:33 | 49.70321 | 9.26447 | 13281 ft | 364 kts | 130° |
| 2026-05-01 12:34 | 49.68672 | 9.29360 | 13822 ft | 366 kts | 129° |
| 2026-05-01 12:34 | 49.67000 | 9.32349 | 14338 ft | 369 kts | 129° |
| 2026-05-01 12:34 | 49.65301 | 9.35356 | 14784 ft | 374 kts | 130° |
| 2026-05-01 12:34 | 49.63578 | 9.38373 | 15271 ft | 376 kts | 130° |
| 2026-05-01 12:35 | 49.61985 | 9.41584 | 15620 ft | 381 kts | 118° |
| 2026-05-01 12:35 | 49.60978 | 9.45355 | 16147 ft | 380 kts | 108° |
| 2026-05-01 12:35 | 49.60143 | 9.49228 | 16659 ft | 382 kts | 107° |
| 2026-05-01 12:35 | 49.59334 | 9.53140 | 17106 ft | 385 kts | 107° |
| 2026-05-01 12:36 | 49.58498 | 9.57076 | 17551 ft | 388 kts | 108° |
| 2026-05-01 12:36 | 49.57683 | 9.60803 | 17991 ft | 391 kts | 108° |
| 2026-05-01 12:36 | 49.56817 | 9.64782 | 18482 ft | 392 kts | 108° |
| 2026-05-01 12:36 | 49.55955 | 9.68787 | 18858 ft | 396 kts | 108° |
| 2026-05-01 12:37 | 49.55085 | 9.72831 | 19205 ft | 400 kts | 108° |
| 2026-05-01 12:37 | 49.54201 | 9.76899 | 19609 ft | 401 kts | 108° |
| 2026-05-01 12:37 | 49.53300 | 9.80972 | 20011 ft | 403 kts | 109° |
| 2026-05-01 12:37 | 49.51981 | 9.84804 | 20285 ft | 409 kts | 123° |
| 2026-05-01 12:38 | 49.50224 | 9.88274 | 20615 ft | 413 kts | 128° |
| 2026-05-01 12:38 | 49.48400 | 9.91688 | 20999 ft | 414 kts | 128° |
| 2026-05-01 12:38 | 49.46566 | 9.95128 | 21349 ft | 417 kts | 127° |
| 2026-05-01 12:38 | 49.44742 | 9.98601 | 21739 ft | 418 kts | 127° |
| 2026-05-01 12:39 | 49.42908 | 10.02096 | 22068 ft | 421 kts | 127° |
| 2026-05-01 12:39 | 49.41049 | 10.05602 | 22374 ft | 425 kts | 127° |
| 2026-05-01 12:39 | 49.39172 | 10.09127 | 22697 ft | 428 kts | 127° |
| 2026-05-01 12:39 | 49.37290 | 10.12677 | 22992 ft | 431 kts | 127° |
| 2026-05-01 12:40 | 49.35390 | 10.16256 | 23346 ft | 433 kts | 127° |
| 2026-05-01 12:40 | 49.33485 | 10.19835 | 23664 ft | 435 kts | 127° |
| 2026-05-01 12:40 | 49.31561 | 10.23442 | 24002 ft | 437 kts | 127° |
| 2026-05-01 12:40 | 49.29631 | 10.27059 | 24244 ft | 440 kts | 127° |
| 2026-05-01 12:41 | 49.27714 | 10.30647 | 24487 ft | 443 kts | 127° |
| 2026-05-01 12:41 | 49.25756 | 10.34306 | 24724 ft | 446 kts | 127° |
| 2026-05-01 12:41 | 49.23782 | 10.37969 | 25017 ft | 447 kts | 128° |
| 2026-05-01 12:41 | 49.21588 | 10.41385 | 25227 ft | 451 kts | 134° |
| 2026-05-01 12:42 | 49.19318 | 10.44709 | 25481 ft | 453 kts | 134° |
| 2026-05-01 12:42 | 49.17044 | 10.48051 | 25748 ft | 454 kts | 133° |
| 2026-05-01 12:42 | 49.14781 | 10.51439 | 26025 ft | 456 kts | 133° |
| 2026-05-01 12:42 | 49.12509 | 10.54837 | 26274 ft | 458 kts | 133° |
| 2026-05-01 12:43 | 49.10217 | 10.58226 | 26513 ft | 460 kts | 134° |
| 2026-05-01 12:43 | 49.07908 | 10.61627 | 26775 ft | 462 kts | 134° |
| 2026-05-01 12:43 | 49.05597 | 10.65043 | 27046 ft | 464 kts | 134° |
| 2026-05-01 12:43 | 49.03277 | 10.68477 | 27274 ft | 466 kts | 133° |
| 2026-05-01 12:44 | 49.00943 | 10.71914 | 27495 ft | 468 kts | 134° |
| 2026-05-01 12:44 | 48.98591 | 10.75358 | 27752 ft | 470 kts | 134° |
| 2026-05-01 12:44 | 48.93869 | 10.82285 | 28212 ft | 473 kts | 134° |
| 2026-05-01 12:45 | 48.89105 | 10.89257 | 28678 ft | 477 kts | 134° |
| 2026-05-01 12:45 | 48.86711 | 10.92764 | 28925 ft | 479 kts | 134° |
| 2026-05-01 12:45 | 48.84308 | 10.96278 | 29156 ft | 481 kts | 134° |
| 2026-05-01 12:46 | 48.81892 | 10.99800 | 29406 ft | 483 kts | 134° |
| 2026-05-01 12:46 | 48.79466 | 11.03333 | 29650 ft | 484 kts | 134° |
| 2026-05-01 12:46 | 48.77068 | 11.06823 | 29853 ft | 486 kts | 134° |
| 2026-05-01 12:46 | 48.74620 | 11.10374 | 30109 ft | 488 kts | 134° |
| 2026-05-01 12:47 | 48.72158 | 11.13927 | 30337 ft | 490 kts | 134° |
| 2026-05-01 12:47 | 48.69688 | 11.17488 | 30542 ft | 492 kts | 134° |
| 2026-05-01 12:47 | 48.67215 | 11.21080 | 30734 ft | 492 kts | 132° |
| 2026-05-01 12:47 | 48.65064 | 11.25086 | 30881 ft | 490 kts | 120° |
| 2026-05-01 12:48 | 48.63475 | 11.29619 | 31103 ft | 487 kts | 110° |
| 2026-05-01 12:48 | 48.62388 | 11.34450 | 31295 ft | 486 kts | 105° |
| 2026-05-01 12:48 | 48.60344 | 11.44228 | 31374 ft | 489 kts | 105° |
| 2026-05-01 12:49 | 48.58254 | 11.53956 | 31368 ft | 486 kts | 105° |
| 2026-05-01 12:49 | 48.56430 | 11.63749 | 31373 ft | 483 kts | 99° |
| 2026-05-01 12:50 | 48.55015 | 11.73672 | 31365 ft | 484 kts | 99° |
| 2026-05-01 12:50 | 48.53551 | 11.83569 | 31353 ft | 481 kts | 99° |
| 2026-05-01 12:51 | 48.52111 | 11.93428 | 31344 ft | 481 kts | 99° |
| 2026-05-01 12:52 | 48.49925 | 12.08138 | 31355 ft | 482 kts | 99° |
| 2026-05-01 12:52 | 48.47702 | 12.22928 | 31361 ft | 481 kts | 99° |
| 2026-05-01 12:53 | 48.45470 | 12.37648 | 31362 ft | 480 kts | 99° |
| 2026-05-01 12:54 | 48.43967 | 12.47452 | 31357 ft | 480 kts | 99° |
| 2026-05-01 12:54 | 48.41699 | 12.62164 | 31364 ft | 481 kts | 99° |
| 2026-05-01 12:55 | 48.39808 | 12.76942 | 31352 ft | 476 kts | 88° |
| 2026-05-01 12:56 | 48.40020 | 12.85246 | 31360 ft | 474 kts | 84° |
| 2026-05-01 12:56 | 48.40321 | 12.95177 | 31366 ft | 475 kts | 85° |
| 2026-05-01 12:57 | 48.40601 | 13.05037 | 31362 ft | 474 kts | 84° |
| 2026-05-01 12:57 | 48.41018 | 13.19881 | 31363 ft | 473 kts | 84° |
| 2026-05-01 12:58 | 48.41096 | 13.29788 | 31339 ft | 477 kts | 93° |
| 2026-05-01 12:59 | 48.38301 | 13.44274 | 31373 ft | 484 kts | 105° |
| 2026-05-01 12:59 | 48.35023 | 13.58606 | 31362 ft | 482 kts | 105° |
| 2026-05-01 13:00 | 48.31730 | 13.72877 | 31369 ft | 482 kts | 105° |
| 2026-05-01 13:01 | 48.28420 | 13.87132 | 31382 ft | 482 kts | 104° |
| 2026-05-01 13:02 | 48.25107 | 14.01313 | 31374 ft | 480 kts | 105° |
| 2026-05-01 13:07 | 48.01429 | 15.00044 | 33352 ft | 477 kts | 104° |
| 2026-05-01 13:07 | 48.00287 | 15.04692 | 33374 ft | 477 kts | 104° |
| 2026-05-01 13:08 | 47.98020 | 15.13892 | 33365 ft | 475 kts | 104° |
| 2026-05-01 13:08 | 47.95734 | 15.23144 | 33360 ft | 474 kts | 104° |
| 2026-05-01 13:09 | 47.93442 | 15.32368 | 33370 ft | 476 kts | 104° |
| 2026-05-01 13:09 | 47.91135 | 15.41625 | 33390 ft | 476 kts | 104° |
| 2026-05-01 13:10 | 47.88819 | 15.50872 | 33374 ft | 476 kts | 104° |
| 2026-05-01 13:10 | 47.86498 | 15.60111 | 33373 ft | 476 kts | 104° |
| 2026-05-01 13:11 | 47.84169 | 15.69332 | 33374 ft | 476 kts | 104° |
| 2026-05-01 13:11 | 47.81833 | 15.78556 | 33375 ft | 477 kts | 105° |
| 2026-05-01 13:12 | 47.79487 | 15.87770 | 33366 ft | 475 kts | 104° |
| 2026-05-01 13:12 | 47.77140 | 15.96961 | 33370 ft | 476 kts | 104° |
| 2026-05-01 13:13 | 47.74784 | 16.06142 | 33369 ft | 475 kts | 105° |
| 2026-05-01 13:13 | 47.72422 | 16.15315 | 33370 ft | 475 kts | 105° |
| 2026-05-01 13:14 | 47.70053 | 16.24472 | 33360 ft | 474 kts | 104° |
| 2026-05-01 13:14 | 47.67683 | 16.33606 | 33357 ft | 475 kts | 104° |
| 2026-05-01 13:15 | 47.65302 | 16.42742 | 33363 ft | 475 kts | 105° |
| 2026-05-01 13:15 | 47.62911 | 16.51876 | 33365 ft | 475 kts | 105° |
| 2026-05-01 13:16 | 47.60516 | 16.60996 | 33364 ft | 475 kts | 105° |
| 2026-05-01 13:16 | 47.58108 | 16.70126 | 33365 ft | 477 kts | 105° |
| 2026-05-01 13:17 | 47.53151 | 16.88318 | 33355 ft | 475 kts | 106° |
| 2026-05-01 13:18 | 47.49429 | 17.01862 | 33357 ft | 473 kts | 105° |
| 2026-05-01 13:18 | 47.46922 | 17.10858 | 33355 ft | 474 kts | 105° |
| 2026-05-01 13:19 | 47.44416 | 17.19877 | 33357 ft | 475 kts | 106° |
| 2026-05-01 13:20 | 47.40642 | 17.33351 | 33343 ft | 476 kts | 105° |
| 2026-05-01 13:20 | 47.38099 | 17.42393 | 33343 ft | 473 kts | 105° |
| 2026-05-01 13:21 | 47.34323 | 17.55762 | 33341 ft | 473 kts | 106° |
| 2026-05-01 13:21 | 47.31784 | 17.64705 | 33341 ft | 473 kts | 106° |
| 2026-05-01 13:22 | 47.29238 | 17.73640 | 33347 ft | 472 kts | 105° |
| 2026-05-01 13:22 | 47.26695 | 17.82542 | 33345 ft | 472 kts | 105° |
| 2026-05-01 13:23 | 47.24136 | 17.91453 | 33349 ft | 473 kts | 106° |
| 2026-05-01 13:23 | 47.21573 | 18.00353 | 33341 ft | 472 kts | 106° |
| 2026-05-01 13:24 | 47.19010 | 18.09216 | 33349 ft | 469 kts | 105° |
| 2026-05-01 13:25 | 47.15171 | 18.22443 | 33339 ft | 470 kts | 106° |
| 2026-05-01 13:25 | 47.12597 | 18.31263 | 33340 ft | 470 kts | 106° |
| 2026-05-01 13:26 | 47.10012 | 18.40094 | 33361 ft | 471 kts | 106° |
| 2026-05-01 13:26 | 47.07429 | 18.48875 | 33328 ft | 465 kts | 105° |
| 2026-05-01 13:27 | 47.04862 | 18.57599 | 33324 ft | 467 kts | 105° |
| 2026-05-01 13:27 | 47.00971 | 18.70725 | 33332 ft | 469 kts | 106° |
| 2026-05-01 13:28 | 46.97066 | 18.83844 | 33327 ft | 468 kts | 106° |
| 2026-05-01 13:29 | 46.91846 | 19.01269 | 33324 ft | 468 kts | 106° |
| 2026-05-01 13:31 | 46.83970 | 19.27331 | 33327 ft | 466 kts | 106° |
| 2026-05-01 13:32 | 46.77358 | 19.49004 | 33351 ft | 468 kts | 106° |
| 2026-05-01 13:33 | 46.70860 | 19.70120 | 33329 ft | 463 kts | 106° |
| 2026-05-01 13:34 | 46.65566 | 19.87197 | 33323 ft | 462 kts | 105° |
| 2026-05-01 13:35 | 46.61595 | 19.99931 | 33319 ft | 461 kts | 105° |
| 2026-05-01 13:36 | 46.57602 | 20.12663 | 33320 ft | 462 kts | 105° |
| 2026-05-01 13:36 | 46.53590 | 20.25401 | 33319 ft | 462 kts | 106° |
| 2026-05-01 13:37 | 46.51360 | 20.32452 | 33320 ft | 463 kts | 106° |
| 2026-05-01 13:37 | 46.48212 | 20.42376 | 33323 ft | 463 kts | 106° |
| 2026-05-01 13:38 | 46.44154 | 20.55109 | 33306 ft | 465 kts | 106° |
| 2026-05-01 13:39 | 46.41444 | 20.63569 | 33312 ft | 462 kts | 106° |
| 2026-05-01 13:39 | 46.38738 | 20.72003 | 33301 ft | 461 kts | 106° |
| 2026-05-01 13:40 | 46.36025 | 20.80424 | 33293 ft | 462 kts | 106° |
| 2026-05-01 13:40 | 46.33305 | 20.88843 | 33318 ft | 462 kts | 106° |
| 2026-05-01 13:41 | 46.30587 | 20.97222 | 33293 ft | 463 kts | 106° |
| 2026-05-01 13:41 | 46.27845 | 21.05649 | 33288 ft | 463 kts | 106° |
| 2026-05-01 13:42 | 46.25226 | 21.14111 | 33288 ft | 459 kts | 103° |
| 2026-05-01 13:42 | 46.23193 | 21.21270 | 33289 ft | 461 kts | 104° |
| 2026-05-01 13:43 | 46.20737 | 21.29788 | 33301 ft | 463 kts | 104° |
| 2026-05-01 13:43 | 46.18271 | 21.38360 | 33299 ft | 462 kts | 104° |
| 2026-05-01 13:44 | 46.15793 | 21.46927 | 33299 ft | 463 kts | 104° |
| 2026-05-01 13:44 | 46.13309 | 21.55491 | 33297 ft | 463 kts | 104° |
| 2026-05-01 13:45 | 46.10799 | 21.64124 | 33281 ft | 470 kts | 105° |
| 2026-05-01 13:45 | 46.08258 | 21.72801 | 33288 ft | 470 kts | 105° |
| 2026-05-01 13:46 | 46.05714 | 21.81490 | 33287 ft | 471 kts | 105° |
| 2026-05-01 13:46 | 46.03163 | 21.90151 | 33277 ft | 470 kts | 105° |
| 2026-05-01 13:47 | 46.00597 | 21.98862 | 33273 ft | 477 kts | 106° |
| 2026-05-01 13:47 | 45.97995 | 22.07621 | 33267 ft | 475 kts | 106° |
| 2026-05-01 13:48 | 45.95407 | 22.16341 | 33258 ft | 474 kts | 106° |
| 2026-05-01 13:48 | 45.92808 | 22.25045 | 33260 ft | 474 kts | 107° |
| 2026-05-01 13:49 | 45.90187 | 22.33807 | 33277 ft | 482 kts | 107° |
| 2026-05-01 13:49 | 45.87530 | 22.42639 | 33274 ft | 481 kts | 108° |
| 2026-05-01 13:50 | 45.84879 | 22.51439 | 33267 ft | 481 kts | 108° |
| 2026-05-01 13:50 | 45.82216 | 22.60239 | 33290 ft | 481 kts | 108° |
| 2026-05-01 13:51 | 45.79527 | 22.69096 | 33265 ft | 487 kts | 108° |
| 2026-05-01 13:51 | 45.76820 | 22.77974 | 33271 ft | 486 kts | 109° |
| 2026-05-01 13:52 | 45.74110 | 22.86844 | 33268 ft | 486 kts | 109° |
| 2026-05-01 13:52 | 45.71392 | 22.95702 | 33263 ft | 487 kts | 109° |
| 2026-05-01 13:53 | 45.68647 | 23.04617 | 33256 ft | 490 kts | 109° |
| 2026-05-01 13:53 | 45.64517 | 23.17971 | 33253 ft | 490 kts | 110° |
| 2026-05-01 13:54 | 45.61772 | 23.26806 | 33254 ft | 489 kts | 110° |
| 2026-05-01 13:54 | 45.58990 | 23.35737 | 33253 ft | 494 kts | 110° |
| 2026-05-01 13:55 | 45.56191 | 23.44677 | 33245 ft | 493 kts | 110° |
| 2026-05-01 13:55 | 45.53390 | 23.53607 | 33244 ft | 493 kts | 110° |
| 2026-05-01 13:56 | 45.50579 | 23.62528 | 33251 ft | 495 kts | 111° |
| 2026-05-01 13:56 | 45.47748 | 23.71487 | 33251 ft | 495 kts | 111° |
| 2026-05-01 13:57 | 45.44915 | 23.80419 | 33249 ft | 494 kts | 111° |
| 2026-05-01 13:57 | 45.42103 | 23.89253 | 33247 ft | 494 kts | 111° |
| 2026-05-01 13:58 | 45.39256 | 23.98173 | 33264 ft | 498 kts | 111° |
| 2026-05-01 13:58 | 45.36377 | 24.07150 | 33257 ft | 498 kts | 111° |
| 2026-05-01 13:59 | 45.33504 | 24.16091 | 33261 ft | 498 kts | 111° |
| 2026-05-01 13:59 | 45.30620 | 24.25026 | 33252 ft | 497 kts | 111° |
| 2026-05-01 14:00 | 45.27727 | 24.33963 | 33262 ft | 499 kts | 112° |
| 2026-05-01 14:00 | 45.24818 | 24.42913 | 33265 ft | 499 kts | 112° |
| 2026-05-01 14:01 | 45.21903 | 24.51857 | 33266 ft | 500 kts | 112° |
| 2026-05-01 14:01 | 45.18979 | 24.60794 | 33276 ft | 500 kts | 113° |
| 2026-05-01 14:02 | 45.16063 | 24.69676 | 33267 ft | 500 kts | 113° |
| 2026-05-01 14:02 | 45.13126 | 24.78596 | 33269 ft | 499 kts | 113° |
| 2026-05-01 14:03 | 45.10185 | 24.87494 | 33270 ft | 499 kts | 113° |
| 2026-05-01 14:03 | 45.07231 | 24.96406 | 33261 ft | 502 kts | 114° |
| 2026-05-01 14:04 | 45.04257 | 25.05340 | 33262 ft | 503 kts | 114° |
| 2026-05-01 14:04 | 45.01777 | 25.12773 | 33271 ft | 503 kts | 114° |
| 2026-05-01 14:05 | 44.98283 | 25.23208 | 33274 ft | 502 kts | 114° |
| 2026-05-01 14:05 | 44.95283 | 25.32134 | 33293 ft | 504 kts | 114° |
| 2026-05-01 14:06 | 44.92269 | 25.41069 | 33283 ft | 503 kts | 114° |
| 2026-05-01 14:06 | 44.89255 | 25.49978 | 33278 ft | 503 kts | 114° |
| 2026-05-01 14:07 | 44.86235 | 25.58872 | 33283 ft | 504 kts | 115° |
| 2026-05-01 14:08 | 44.81666 | 25.72276 | 33289 ft | 506 kts | 115° |
| 2026-05-01 14:08 | 44.78628 | 25.81151 | 33302 ft | 507 kts | 115° |
| 2026-05-01 14:09 | 44.75557 | 25.90092 | 33298 ft | 508 kts | 115° |
| 2026-05-01 14:09 | 44.72550 | 25.98817 | 33392 ft | 509 kts | 115° |
| 2026-05-01 14:09 | 44.71005 | 26.03288 | 33724 ft | 508 kts | 115° |
| 2026-05-01 14:10 | 44.69462 | 26.07749 | 34032 ft | 507 kts | 115° |
| 2026-05-01 14:10 | 44.67919 | 26.12201 | 34318 ft | 507 kts | 115° |
| 2026-05-01 14:10 | 44.66374 | 26.16650 | 34539 ft | 507 kts | 115° |
| 2026-05-01 14:10 | 44.64830 | 26.21091 | 34762 ft | 507 kts | 115° |
| 2026-05-01 14:11 | 44.63281 | 26.25538 | 34979 ft | 507 kts | 115° |
| 2026-05-01 14:11 | 44.60173 | 26.34438 | 35289 ft | 510 kts | 115° |
| 2026-05-01 14:11 | 44.58605 | 26.38917 | 35286 ft | 512 kts | 115° |
| 2026-05-01 14:12 | 44.55478 | 26.47828 | 35289 ft | 507 kts | 115° |
| 2026-05-01 14:12 | 44.52363 | 26.56676 | 35291 ft | 506 kts | 116° |
| 2026-05-01 14:13 | 44.49769 | 26.64021 | 35292 ft | 506 kts | 116° |
| 2026-05-01 14:13 | 44.46115 | 26.74336 | 35288 ft | 506 kts | 116° |
| 2026-05-01 14:14 | 44.42983 | 26.83145 | 35285 ft | 506 kts | 116° |
| 2026-05-01 14:14 | 44.39844 | 26.91946 | 35283 ft | 505 kts | 116° |
| 2026-05-01 14:15 | 44.36701 | 27.00731 | 35279 ft | 505 kts | 116° |
| 2026-05-01 14:15 | 44.33551 | 27.09504 | 35280 ft | 505 kts | 116° |
| 2026-05-01 14:16 | 44.30394 | 27.18272 | 35286 ft | 507 kts | 117° |
| 2026-05-01 14:16 | 44.27214 | 27.27074 | 35290 ft | 509 kts | 117° |
| 2026-05-01 14:17 | 44.24022 | 27.35881 | 35293 ft | 508 kts | 117° |
| 2026-05-01 14:17 | 44.20829 | 27.44662 | 35289 ft | 508 kts | 117° |
| 2026-05-01 14:18 | 44.17622 | 27.53454 | 35285 ft | 509 kts | 117° |
| 2026-05-01 14:18 | 44.14951 | 27.60755 | 35285 ft | 509 kts | 117° |
| 2026-05-01 14:19 | 44.11204 | 27.70966 | 35287 ft | 510 kts | 117° |
| 2026-05-01 14:19 | 44.07970 | 27.79747 | 35274 ft | 511 kts | 118° |
| 2026-05-01 14:20 | 44.03097 | 27.92927 | 35270 ft | 511 kts | 118° |
| 2026-05-01 14:21 | 43.99846 | 28.01686 | 35268 ft | 510 kts | 118° |
| 2026-05-01 14:21 | 43.96587 | 28.10439 | 35262 ft | 511 kts | 118° |
| 2026-05-01 14:22 | 43.91674 | 28.23583 | 35266 ft | 513 kts | 118° |
| 2026-05-01 14:22 | 43.88383 | 28.32350 | 35265 ft | 512 kts | 118° |
| 2026-05-01 14:23 | 43.85090 | 28.41098 | 35263 ft | 512 kts | 118° |
| 2026-05-01 14:23 | 43.81791 | 28.49833 | 35262 ft | 512 kts | 118° |
| 2026-05-01 14:24 | 43.78482 | 28.58567 | 35255 ft | 512 kts | 119° |
| 2026-05-01 14:24 | 43.75163 | 28.67301 | 35250 ft | 513 kts | 119° |
| 2026-05-01 14:25 | 43.71837 | 28.76025 | 35251 ft | 513 kts | 119° |
| 2026-05-01 14:25 | 43.68169 | 28.84452 | 35253 ft | 511 kts | 127° |
| 2026-05-01 14:26 | 43.61884 | 28.96321 | 35252 ft | 510 kts | 127° |
| 2026-05-01 14:27 | 43.57745 | 29.04270 | 35247 ft | 510 kts | 128° |
| 2026-05-01 14:27 | 43.53563 | 29.12165 | 35244 ft | 510 kts | 128° |
| 2026-05-01 14:28 | 43.47320 | 29.24009 | 35244 ft | 509 kts | 128° |
| 2026-05-01 14:28 | 43.43141 | 29.31891 | 35247 ft | 510 kts | 128° |
| 2026-05-01 14:29 | 43.39662 | 29.38448 | 35241 ft | 511 kts | 128° |
| 2026-05-01 14:30 | 43.31329 | 29.54073 | 35245 ft | 512 kts | 129° |
| 2026-05-01 14:31 | 43.25021 | 29.65847 | 35238 ft | 510 kts | 129° |
| 2026-05-01 14:31 | 43.20821 | 29.73663 | 35240 ft | 508 kts | 129° |
| 2026-05-01 14:32 | 43.16617 | 29.81463 | 35240 ft | 509 kts | 129° |
| 2026-05-01 14:32 | 43.12401 | 29.89267 | 35238 ft | 510 kts | 129° |
| 2026-05-01 14:33 | 43.08167 | 29.97083 | 35226 ft | 511 kts | 129° |
| 2026-05-01 14:33 | 43.03935 | 30.04873 | 35222 ft | 510 kts | 130° |
| 2026-05-01 14:34 | 42.99695 | 30.12659 | 35225 ft | 511 kts | 130° |
| 2026-05-01 14:34 | 42.95447 | 30.20441 | 35211 ft | 511 kts | 130° |
| 2026-05-01 14:35 | 42.91195 | 30.28207 | 35220 ft | 510 kts | 130° |
| 2026-05-01 14:35 | 42.86944 | 30.35952 | 35211 ft | 510 kts | 130° |
| 2026-05-01 14:36 | 42.82718 | 30.43631 | 35210 ft | 510 kts | 130° |
| 2026-05-01 14:36 | 42.78467 | 30.51336 | 35202 ft | 508 kts | 131° |
| 2026-05-01 14:37 | 42.74638 | 30.59431 | 35200 ft | 515 kts | 116° |
| 2026-05-01 14:37 | 42.73508 | 30.64081 | 35204 ft | 521 kts | 105° |
| 2026-05-01 14:37 | 42.72930 | 30.68959 | 35216 ft | 523 kts | 100° |
| 2026-05-01 14:38 | 42.71969 | 30.78777 | 35206 ft | 525 kts | 101° |
| 2026-05-01 14:38 | 42.70940 | 30.88616 | 35215 ft | 526 kts | 101° |
| 2026-05-01 14:39 | 42.69940 | 30.98457 | 35203 ft | 525 kts | 101° |
| 2026-05-01 14:39 | 42.68911 | 31.08271 | 35204 ft | 524 kts | 101° |
| 2026-05-01 14:40 | 42.67886 | 31.18071 | 35193 ft | 524 kts | 101° |
| 2026-05-01 14:40 | 42.66846 | 31.27884 | 35190 ft | 525 kts | 101° |
| 2026-05-01 14:41 | 42.65799 | 31.37706 | 35201 ft | 525 kts | 102° |
| 2026-05-01 14:41 | 42.64743 | 31.47530 | 35175 ft | 525 kts | 102° |
| 2026-05-01 14:42 | 42.63677 | 31.57347 | 35189 ft | 526 kts | 102° |
| 2026-05-01 14:42 | 42.62601 | 31.67189 | 35192 ft | 527 kts | 102° |
| 2026-05-01 14:43 | 42.61524 | 31.76955 | 35189 ft | 526 kts | 102° |
| 2026-05-01 14:43 | 42.60434 | 31.86761 | 35178 ft | 525 kts | 103° |
| 2026-05-01 14:44 | 42.59334 | 31.96572 | 35179 ft | 526 kts | 103° |
| 2026-05-01 14:44 | 42.57691 | 32.11314 | 35177 ft | 527 kts | 103° |
| 2026-05-01 14:45 | 42.55992 | 32.26036 | 35167 ft | 526 kts | 104° |
| 2026-05-01 14:46 | 42.54866 | 32.35846 | 35167 ft | 527 kts | 104° |
| 2026-05-01 14:46 | 42.53143 | 32.50575 | 35168 ft | 527 kts | 104° |
| 2026-05-01 14:47 | 42.51990 | 32.60375 | 35158 ft | 526 kts | 105° |
| 2026-05-01 14:48 | 42.50242 | 32.75054 | 35157 ft | 527 kts | 105° |
| 2026-05-01 14:48 | 42.48472 | 32.89766 | 35157 ft | 528 kts | 105° |
| 2026-05-01 14:49 | 42.46082 | 33.09371 | 35158 ft | 528 kts | 105° |
| 2026-05-01 14:50 | 42.43660 | 33.28934 | 35137 ft | 524 kts | 105° |
| 2026-05-01 14:51 | 42.41836 | 33.43472 | 35151 ft | 522 kts | 106° |
| 2026-05-01 14:52 | 42.40004 | 33.57946 | 35154 ft | 523 kts | 106° |
| 2026-05-01 14:53 | 42.38145 | 33.72483 | 35142 ft | 520 kts | 106° |
| 2026-05-01 14:53 | 42.36905 | 33.82067 | 35140 ft | 519 kts | 106° |
| 2026-05-01 14:54 | 42.35656 | 33.91682 | 35142 ft | 520 kts | 106° |
| 2026-05-01 14:54 | 42.34411 | 34.01249 | 35137 ft | 519 kts | 106° |
| 2026-05-01 14:55 | 42.33152 | 34.10840 | 35141 ft | 518 kts | 107° |
| 2026-05-01 14:55 | 42.31888 | 34.20401 | 35139 ft | 518 kts | 107° |
| 2026-05-01 14:56 | 42.30616 | 34.29973 | 35141 ft | 517 kts | 107° |
| 2026-05-01 14:56 | 42.29340 | 34.39502 | 35136 ft | 514 kts | 107° |
| 2026-05-01 14:57 | 42.28054 | 34.49019 | 35132 ft | 516 kts | 107° |
| 2026-05-01 14:57 | 42.26108 | 34.63336 | 35126 ft | 517 kts | 107° |
| 2026-05-01 14:58 | 42.24798 | 34.72869 | 35120 ft | 516 kts | 107° |
| 2026-05-01 14:58 | 42.23487 | 34.82376 | 35121 ft | 515 kts | 107° |
| 2026-05-01 14:59 | 42.22161 | 34.91876 | 35116 ft | 515 kts | 107° |
| 2026-05-01 14:59 | 42.20829 | 35.01382 | 35117 ft | 516 kts | 107° |
| 2026-05-01 15:00 | 42.18817 | 35.15620 | 35112 ft | 515 kts | 107° |
| 2026-05-01 15:01 | 42.17465 | 35.25110 | 35118 ft | 516 kts | 107° |
| 2026-05-01 15:01 | 42.16105 | 35.34605 | 35105 ft | 516 kts | 107° |
| 2026-05-01 15:02 | 42.14737 | 35.44096 | 35109 ft | 515 kts | 107° |
| 2026-05-01 15:02 | 42.13380 | 35.53491 | 35106 ft | 513 kts | 107° |
| 2026-05-01 15:03 | 42.12007 | 35.62916 | 35100 ft | 512 kts | 107° |
| 2026-05-01 15:03 | 42.10630 | 35.72318 | 35080 ft | 511 kts | 107° |
| 2026-05-01 15:04 | 42.09248 | 35.81704 | 35084 ft | 510 kts | 107° |
| 2026-05-01 15:04 | 42.07857 | 35.91079 | 35085 ft | 511 kts | 108° |
| 2026-05-01 15:05 | 42.06457 | 36.00476 | 35086 ft | 513 kts | 108° |
| 2026-05-01 15:05 | 42.05062 | 36.09779 | 35087 ft | 513 kts | 108° |
| 2026-05-01 15:06 | 42.03651 | 36.19142 | 35072 ft | 509 kts | 108° |
| 2026-05-01 15:06 | 42.02249 | 36.28371 | 35065 ft | 509 kts | 108° |
| 2026-05-01 15:07 | 42.00824 | 36.37716 | 35068 ft | 508 kts | 108° |
| 2026-05-01 15:07 | 41.99394 | 36.47028 | 35063 ft | 509 kts | 108° |
| 2026-05-01 15:08 | 41.97958 | 36.56339 | 35063 ft | 509 kts | 108° |
| 2026-05-01 15:08 | 41.96513 | 36.65647 | 35064 ft | 509 kts | 108° |
| 2026-05-01 15:09 | 41.95061 | 36.74948 | 35066 ft | 509 kts | 108° |
| 2026-05-01 15:09 | 41.93602 | 36.84246 | 35065 ft | 508 kts | 108° |
| 2026-05-01 15:10 | 41.92137 | 36.93526 | 35063 ft | 508 kts | 108° |
| 2026-05-01 15:10 | 41.89573 | 37.07192 | 35058 ft | 498 kts | 119° |
| 2026-05-01 15:11 | 41.85535 | 37.19984 | 35056 ft | 500 kts | 118° |
| 2026-05-01 15:12 | 41.82832 | 37.28569 | 35062 ft | 500 kts | 119° |
| 2026-05-01 15:12 | 41.78750 | 37.41459 | 35056 ft | 501 kts | 118° |
| 2026-05-01 15:14 | 41.71928 | 37.62863 | 35045 ft | 499 kts | 118° |
| 2026-05-01 15:14 | 41.67829 | 37.75656 | 35048 ft | 497 kts | 118° |
| 2026-05-01 15:15 | 41.62369 | 37.92601 | 35037 ft | 496 kts | 119° |
| 2026-05-01 15:16 | 41.56880 | 38.09528 | 35041 ft | 499 kts | 119° |
| 2026-05-01 15:18 | 41.49954 | 38.30747 | 35038 ft | 498 kts | 119° |
| 2026-05-01 15:19 | 41.44385 | 38.47690 | 35043 ft | 501 kts | 119° |
| 2026-05-01 15:19 | 41.40168 | 38.60443 | 35034 ft | 503 kts | 119° |
| 2026-05-01 15:20 | 41.36373 | 38.71878 | 35041 ft | 504 kts | 119° |
| 2026-05-01 15:21 | 41.33553 | 38.80340 | 35040 ft | 503 kts | 119° |
| 2026-05-01 15:21 | 41.30776 | 38.88880 | 35034 ft | 503 kts | 118° |
| 2026-05-01 15:22 | 41.26568 | 39.01679 | 35041 ft | 505 kts | 118° |
| 2026-05-01 15:22 | 41.23759 | 39.10247 | 35041 ft | 506 kts | 118° |
| 2026-05-01 15:23 | 41.20904 | 39.18758 | 35031 ft | 503 kts | 121° |
| 2026-05-01 15:23 | 41.17968 | 39.27211 | 35035 ft | 505 kts | 119° |
| 2026-05-01 15:24 | 41.15019 | 39.35663 | 35034 ft | 504 kts | 120° |
| 2026-05-01 15:24 | 41.12055 | 39.44089 | 35036 ft | 504 kts | 120° |
| 2026-05-01 15:25 | 41.09105 | 39.52508 | 35036 ft | 503 kts | 120° |
| 2026-05-01 15:25 | 41.06139 | 39.60897 | 35041 ft | 502 kts | 120° |
| 2026-05-01 15:26 | 41.03181 | 39.69276 | 35049 ft | 503 kts | 120° |
| 2026-05-01 15:26 | 41.00322 | 39.77794 | 35026 ft | 512 kts | 112° |
| 2026-05-01 15:27 | 40.99543 | 39.82413 | 35026 ft | 518 kts | 101° |
| 2026-05-01 15:27 | 40.99330 | 39.87174 | 35059 ft | 520 kts | 95° |
| 2026-05-01 15:28 | 40.99014 | 40.01578 | 35050 ft | 521 kts | 96° |
| 2026-05-01 15:28 | 40.98763 | 40.11160 | 35029 ft | 521 kts | 95° |
| 2026-05-01 15:29 | 40.98393 | 40.25518 | 35019 ft | 522 kts | 95° |
| 2026-05-01 15:30 | 40.97859 | 40.44678 | 35003 ft | 520 kts | 95° |
| 2026-05-01 15:31 | 40.96999 | 40.73382 | 35008 ft | 520 kts | 95° |
| 2026-05-01 15:32 | 40.96388 | 40.92464 | 35008 ft | 522 kts | 95° |
| 2026-05-01 15:34 | 40.95404 | 41.21306 | 34993 ft | 522 kts | 95° |